Time;durP1;ratioP1;P1;durP2;ratioP2;P2;SDS_P1;SDS_P2;PMS_P1;PMS_P2;Temp;Humidity;BMP_temperature;BMP_pressure;BME280_temperature;BME280_humidity;BME280_pressure;Samples;Min_cycle;Max_cycle;Signal;HPM_P1;HPM_P2
2021/06/04 00:02:08;;;;;;;;;;;17.40;90.00;;;;;;4993284;28;20374;-68
2021/06/04 00:04:34;;;;;;;;;;;17.40;90.10;;;;;;4992263;28;19944;-67
2021/06/04 00:07:00;;;;;;;;;;;17.40;90.10;;;;;;4991520;28;19925;-68
2021/06/04 00:09:25;;;;;;;;;;;17.40;90.10;;;;;;4993043;28;19925;-67
2021/06/04 00:11:52;;;;;;;;;;;17.40;90.10;;;;;;4992361;28;20321;-70
2021/06/04 00:14:21;;;;;;;;;;;17.40;90.10;;;;;;4992639;28;20021;-67
2021/06/04 00:16:48;;;;;;;;;;;17.40;90.20;;;;;;4991009;28;20008;-67
2021/06/04 00:19:15;;;;;;;;;;;17.40;90.10;;;;;;4992702;28;19921;-67
2021/06/04 00:21:45;;;;;;;;;;;17.40;90.10;;;;;;4992349;28;19957;-65
2021/06/04 00:24:11;;;;;;;;;;;17.30;90.10;;;;;;4990948;28;19918;-68
2021/06/04 00:26:38;;;;;;;;;;;17.30;90.10;;;;;;4992305;28;19930;-67
2021/06/04 00:29:04;;;;;;;;;;;17.30;90.10;;;;;;4990644;28;19968;-67
2021/06/04 00:31:31;;;;;;;;;;;17.20;90.10;;;;;;4991481;28;19918;-66
2021/06/04 00:33:57;;;;;;;;;;;17.20;90.20;;;;;;5007246;28;19926;-66
2021/06/04 00:36:24;;;;;;;;;;;17.20;90.30;;;;;;4990797;28;19925;-66
2021/06/04 00:38:50;;;;;;;;;;;17.20;90.30;;;;;;4991335;28;19921;-66
2021/06/04 00:41:20;;;;;;;;;;;17.20;90.30;;;;;;5006979;28;19928;-67
2021/06/04 00:43:47;;;;;;;;;;;17.10;90.30;;;;;;4990176;28;19918;-66
2021/06/04 00:46:13;;;;;;;;;;;17.10;90.30;;;;;;4991052;28;19928;-67
2021/06/04 00:48:38;;;;;;;;;;;17.10;90.40;;;;;;5007060;28;19921;-66
2021/06/04 00:51:12;;;;;;;;;;;17.10;90.40;;;;;;4991402;28;20005;-66
2021/06/04 00:53:39;;;;;;;;;;;17.10;90.50;;;;;;5006989;28;20003;-66
2021/06/04 00:56:07;;;;;;;;;;;17.10;90.50;;;;;;5008283;28;20290;-66
2021/06/04 00:58:35;;;;;;;;;;;17.10;90.50;;;;;;4992823;28;20382;-66
2021/06/04 01:01:03;;;;;;;;;;;17.10;90.50;;;;;;5007622;28;20294;-67
2021/06/04 01:03:31;;;;;;;;;;;17.20;90.60;;;;;;5007256;28;19925;-67
2021/06/04 01:06:02;;;;;;;;;;;17.20;90.60;;;;;;4991996;28;20441;-66
2021/06/04 01:08:36;;;;;;;;;;;17.20;90.60;;;;;;5007390;28;19925;-67
2021/06/04 01:11:04;;;;;;;;;;;17.20;90.60;;;;;;4992021;28;19917;-67
2021/06/04 01:13:36;;;;;;;;;;;17.20;90.60;;;;;;4990532;28;20453;-66
2021/06/04 01:16:11;;;;;;;;;;;17.20;90.60;;;;;;4990786;28;20374;-66
2021/06/04 01:18:53;;;;;;;;;;;17.20;90.60;;;;;;5006958;28;20012;-66
2021/06/04 01:21:32;;;;;;;;;;;17.20;90.60;;;;;;4990553;28;19953;-65
2021/06/04 01:24:02;;;;;;;;;;;17.20;90.70;;;;;;4990556;28;19924;-66
2021/06/04 01:26:33;;;;;;;;;;;17.20;90.90;;;;;;4991949;28;19921;-65
2021/06/04 01:29:04;;;;;;;;;;;17.20;90.70;;;;;;4990399;28;19937;-66
2021/06/04 01:31:39;;;;;;;;;;;17.20;90.80;;;;;;4992082;28;20379;-66
2021/06/04 01:34:12;;;;;;;;;;;17.20;90.80;;;;;;5006399;28;20325;-66
2021/06/04 01:36:44;;;;;;;;;;;17.20;90.80;;;;;;4990818;28;19924;-66
2021/06/04 01:39:16;;;;;;;;;;;17.20;90.80;;;;;;4991926;28;19918;-66
2021/06/04 01:41:45;;;;;;;;;;;17.20;90.80;;;;;;4992758;28;19965;-67
2021/06/04 01:44:20;;;;;;;;;;;17.20;90.80;;;;;;4989657;28;20382;-67
2021/06/04 01:46:48;;;;;;;;;;;17.20;90.80;;;;;;4990243;28;19922;-66
2021/06/04 01:49:18;;;;;;;;;;;17.20;90.80;;;;;;4990130;28;19918;-66
2021/06/04 01:51:46;;;;;;;;;;;17.20;90.90;;;;;;4990661;28;20000;-66
2021/06/04 01:54:20;;;;;;;;;;;17.20;90.90;;;;;;5006241;28;20390;-66
2021/06/04 01:56:49;;;;;;;;;;;17.20;90.90;;;;;;4995525;28;19918;-66
2021/06/04 01:59:27;;;;;;;;;;;17.20;90.90;;;;;;4994623;28;19926;-67
2021/06/04 02:02:03;;;;;;;;;;;17.20;90.90;;;;;;4995228;28;19918;-66
2021/06/04 02:04:32;;;;;;;;;;;17.20;90.90;;;;;;4993082;28;19968;-66
2021/06/04 02:06:58;;;;;;;;;;;17.20;90.90;;;;;;4993763;28;19924;-67
2021/06/04 02:09:26;;;;;;;;;;;17.20;90.90;;;;;;4993723;28;19918;-66
2021/06/04 02:11:57;;;;;;;;;;;17.20;90.90;;;;;;4994889;28;19925;-67
2021/06/04 02:14:30;;;;;;;;;;;17.10;90.90;;;;;;4993323;28;19917;-66
2021/06/04 02:17:16;;;;;;;;;;;17.10;90.90;;;;;;5009817;28;19924;-66
2021/06/04 02:19:48;;;;;;;;;;;17.10;91.20;;;;;;4993785;28;19924;-67
2021/06/04 02:22:25;;;;;;;;;;;17.10;91.00;;;;;;4994734;28;19917;-66
2021/06/04 02:25:11;;;;;;;;;;;17.10;91.00;;;;;;5009655;28;19946;-66
2021/06/04 02:27:46;;;;;;;;;;;17.10;91.00;;;;;;5009032;28;19925;-66
2021/06/04 02:30:15;;;;;;;;;;;17.10;91.00;;;;;;4994949;28;19918;-67
2021/06/04 02:32:48;;;;;;;;;;;17.10;91.00;;;;;;4993102;28;19925;-66
2021/06/04 02:35:26;;;;;;;;;;;17.00;91.00;;;;;;4993383;28;19925;-66
2021/06/04 02:37:55;;;;;;;;;;;17.00;91.00;;;;;;5009220;28;19918;-66
2021/06/04 02:40:31;;;;;;;;;;;17.00;91.10;;;;;;4993416;28;20437;-67
2021/06/04 02:43:14;;;;;;;;;;;16.90;91.00;;;;;;5008886;28;19957;-66
2021/06/04 02:45:41;;;;;;;;;;;16.90;90.90;;;;;;4992983;28;19988;-66
2021/06/04 02:48:09;;;;;;;;;;;16.90;90.90;;;;;;4992911;28;20441;-66
2021/06/04 02:50:39;;;;;;;;;;;16.80;90.80;;;;;;4993164;28;19921;-66
2021/06/04 02:53:23;;;;;;;;;;;16.70;90.80;;;;;;4992499;28;19918;-67
2021/06/04 02:56:03;;;;;;;;;;;16.60;90.80;;;;;;4993387;28;19922;-66
2021/06/04 02:58:32;;;;;;;;;;;16.50;90.90;;;;;;4992775;28;19918;-66
2021/06/04 03:01:00;;;;;;;;;;;16.40;90.90;;;;;;4993067;28;19918;-66
2021/06/04 03:03:29;;;;;;;;;;;16.30;91.00;;;;;;4992389;28;19975;-66
2021/06/04 03:05:56;;;;;;;;;;;16.20;91.10;;;;;;5008967;28;20015;-66
2021/06/04 03:08:24;;;;;;;;;;;16.20;91.10;;;;;;4992515;28;19988;-67
2021/06/04 03:10:52;;;;;;;;;;;16.10;91.10;;;;;;4992449;28;19918;-66
2021/06/04 03:13:23;;;;;;;;;;;16.00;91.20;;;;;;4992273;28;20351;-67
2021/06/04 03:15:51;;;;;;;;;;;16.00;91.20;;;;;;4993883;28;19918;-67
2021/06/04 03:18:29;;;;;;;;;;;16.00;91.30;;;;;;5008519;28;19993;-66
2021/06/04 03:20:56;;;;;;;;;;;15.90;91.30;;;;;;5008384;28;20161;-67
2021/06/04 03:23:23;;;;;;;;;;;15.90;91.40;;;;;;4991570;28;19957;-67
2021/06/04 03:25:53;;;;;;;;;;;15.90;91.40;;;;;;4992020;28;19921;-66
2021/06/04 03:28:20;;;;;;;;;;;15.90;91.40;;;;;;4993699;28;19918;-66
2021/06/04 03:30:46;;;;;;;;;;;15.80;91.40;;;;;;4992208;28;20004;-66
2021/06/04 03:33:14;;;;;;;;;;;15.80;91.50;;;;;;4992630;28;19986;-66
2021/06/04 03:35:46;;;;;;;;;;;15.80;91.60;;;;;;4992080;28;19925;-66
2021/06/04 03:38:14;;;;;;;;;;;15.80;91.80;;;;;;4992057;28;19918;-67
2021/06/04 03:40:41;;;;;;;;;;;15.90;91.80;;;;;;4992239;28;19918;-66
2021/06/04 03:43:08;;;;;;;;;;;15.90;91.70;;;;;;4991929;28;19926;-69
2021/06/04 03:45:38;;;;;;;;;;;16.00;91.70;;;;;;5036994;22;19933;-76
2021/06/04 03:48:04;;;;;;;;;;;16.00;91.60;;;;;;4998558;28;19917;-75
2021/06/04 03:50:32;;;;;;;;;;;16.00;91.60;;;;;;5014859;28;19917;-74
2021/06/04 03:52:58;;;;;;;;;;;16.00;91.60;;;;;;5031746;28;19921;-75
2021/06/04 03:55:25;;;;;;;;;;;16.00;91.60;;;;;;5031862;28;19921;-75
2021/06/04 03:57:51;;;;;;;;;;;15.90;91.50;;;;;;5030464;28;19940;-73
2021/06/04 04:00:17;;;;;;;;;;;15.90;91.60;;;;;;5031358;28;19921;-76
2021/06/04 04:02:43;;;;;;;;;;;15.90;91.60;;;;;;5032001;28;20401;-74
2021/06/04 04:05:09;;;;;;;;;;;15.90;91.60;;;;;;5030860;28;19921;-75
2021/06/04 04:07:35;;;;;;;;;;;15.80;91.60;;;;;;5031572;28;20369;-74
2021/06/04 04:10:00;;;;;;;;;;;15.80;91.70;;;;;;5013143;28;19925;-74
2021/06/04 04:12:26;;;;;;;;;;;15.80;91.70;;;;;;5031557;28;19925;-76
2021/06/04 04:14:52;;;;;;;;;;;15.80;91.70;;;;;;5031715;28;19913;-76
2021/06/04 04:17:18;;;;;;;;;;;15.80;91.80;;;;;;5031578;28;19924;-75
2021/06/04 04:19:44;;;;;;;;;;;15.80;91.80;;;;;;5029778;28;20353;-75
2021/06/04 04:22:09;;;;;;;;;;;15.90;91.90;;;;;;5030397;28;19953;-75
2021/06/04 04:24:38;;;;;;;;;;;15.90;91.90;;;;;;5013661;28;19944;-74
2021/06/04 04:27:04;;;;;;;;;;;15.90;91.90;;;;;;5014062;28;20332;-76
2021/06/04 04:29:30;;;;;;;;;;;16.00;91.90;;;;;;5031346;28;19971;-75
2021/06/04 04:31:59;;;;;;;;;;;16.10;91.90;;;;;;5014090;28;19917;-77
2021/06/04 04:34:26;;;;;;;;;;;16.10;91.90;;;;;;5030942;28;20400;-75
2021/06/04 04:36:53;;;;;;;;;;;16.20;92.00;;;;;;5030533;28;19952;-74
2021/06/04 04:39:24;;;;;;;;;;;16.20;91.90;;;;;;5011957;28;20306;-76
2021/06/04 04:41:50;;;;;;;;;;;16.30;92.00;;;;;;5030007;28;19921;-76
2021/06/04 04:44:17;;;;;;;;;;;16.40;92.00;;;;;;5030536;28;20270;-76
2021/06/04 04:46:43;;;;;;;;;;;16.40;92.00;;;;;;5030680;28;19921;-75
2021/06/04 04:49:08;;;;;;;;;;;16.50;92.00;;;;;;5031212;28;19924;-75
2021/06/04 04:51:34;;;;;;;;;;;16.60;92.00;;;;;;5031336;28;19924;-75
2021/06/04 04:54:01;;;;;;;;;;;16.80;92.20;;;;;;5020757;28;20003;-76
2021/06/04 04:56:26;;;;;;;;;;;16.90;92.40;;;;;;5031261;28;19917;-75
2021/06/04 04:58:52;;;;;;;;;;;17.10;92.10;;;;;;5030246;28;19924;-75
2021/06/04 05:01:17;;;;;;;;;;;17.20;92.00;;;;;;5021703;28;19940;-76
2021/06/04 05:03:43;;;;;;;;;;;17.30;91.90;;;;;;5030766;28;19932;-75
2021/06/04 05:06:09;;;;;;;;;;;17.30;91.70;;;;;;5030971;28;19921;-75
2021/06/04 05:08:35;;;;;;;;;;;17.40;91.70;;;;;;5033469;28;19940;-75
2021/06/04 05:11:02;;;;;;;;;;;17.50;91.80;;;;;;5032680;28;20008;-76
2021/06/04 05:13:28;;;;;;;;;;;17.60;91.70;;;;;;5029661;28;20042;-74
2021/06/04 05:15:53;;;;;;;;;;;17.70;91.50;;;;;;5013293;28;20433;-75
2021/06/04 05:18:19;;;;;;;;;;;17.90;91.50;;;;;;5030954;28;19956;-75
2021/06/04 05:20:46;;;;;;;;;;;17.90;91.20;;;;;;5031269;28;19917;-73
2021/06/04 05:23:12;;;;;;;;;;;18.00;91.20;;;;;;5030913;28;19993;-73
2021/06/04 05:25:39;;;;;;;;;;;18.10;91.30;;;;;;5030649;28;19960;-75
2021/06/04 05:28:06;;;;;;;;;;;18.10;91.10;;;;;;5028441;28;19970;-75
2021/06/04 05:30:36;;;;;;;;;;;18.20;91.00;;;;;;5032363;28;19928;-74
2021/06/04 05:33:02;;;;;;;;;;;18.30;91.10;;;;;;5034867;28;19921;-76
2021/06/04 05:35:28;;;;;;;;;;;18.30;90.90;;;;;;5035702;28;19920;-75
2021/06/04 05:37:54;;;;;;;;;;;18.40;90.80;;;;;;5034421;28;19917;-75
2021/06/04 05:40:25;;;;;;;;;;;18.60;91.00;;;;;;5034739;28;20008;-75
2021/06/04 05:42:51;;;;;;;;;;;18.80;91.30;;;;;;5034526;28;20040;-73
2021/06/04 05:45:18;;;;;;;;;;;19.60;93.00;;;;;;5033900;28;20379;-76
2021/06/04 05:47:44;;;;;;;;;;;20.90;94.00;;;;;;5034429;28;19917;-74
2021/06/04 05:50:14;;;;;;;;;;;22.20;93.90;;;;;;5033645;28;19921;-75
2021/06/04 05:52:41;;;;;;;;;;;23.60;93.40;;;;;;5031870;28;19925;-75
2021/06/04 05:55:08;;;;;;;;;;;24.90;91.80;;;;;;5031730;28;19963;-75
2021/06/04 05:57:33;;;;;;;;;;;26.00;90.20;;;;;;5031690;28;20000;-74
2021/06/04 05:59:59;;;;;;;;;;;26.90;88.00;;;;;;5032859;28;20526;-75
2021/06/04 06:02:24;;;;;;;;;;;27.50;84.30;;;;;;5032424;28;20000;-75
2021/06/04 06:04:50;;;;;;;;;;;27.60;79.40;;;;;;5032895;28;20004;-75
2021/06/04 06:07:15;;;;;;;;;;;27.50;76.50;;;;;;5033044;28;19917;-74
2021/06/04 06:09:41;;;;;;;;;;;27.20;74.10;;;;;;5032518;28;20423;-75
2021/06/04 06:12:07;;;;;;;;;;;27.00;72.10;;;;;;5032931;28;19924;-74
2021/06/04 06:14:32;;;;;;;;;;;27.00;71.40;;;;;;5032473;28;19964;-75
2021/06/04 06:16:58;;;;;;;;;;;27.10;69.70;;;;;;5014549;28;19913;-74
2021/06/04 06:19:23;;;;;;;;;;;27.70;69.60;;;;;;5032219;28;19964;-75
2021/06/04 06:21:50;;;;;;;;;;;28.30;67.70;;;;;;5014048;28;19949;-73
2021/06/04 06:24:17;;;;;;;;;;;28.80;64.60;;;;;;5031377;28;20292;-75
2021/06/04 06:26:42;;;;;;;;;;;29.10;62.40;;;;;;5032717;28;19921;-74
2021/06/04 06:29:09;;;;;;;;;;;29.70;60.70;;;;;;5032216;28;22560;-73
2021/06/04 06:31:36;;;;;;;;;;;30.00;57.90;;;;;;5033266;28;20031;-74
2021/06/04 06:34:02;;;;;;;;;;;29.90;55.60;;;;;;5031472;28;19917;-74
2021/06/04 06:36:30;;;;;;;;;;;30.00;55.60;;;;;;5033581;28;20055;-74
2021/06/04 06:38:57;;;;;;;;;;;30.70;55.30;;;;;;5033717;28;20381;-74
2021/06/04 06:41:23;;;;;;;;;;;31.70;53.90;;;;;;5032054;28;19932;-74
2021/06/04 06:43:51;;;;;;;;;;;32.40;51.70;;;;;;5032991;28;19917;-73
2021/06/04 06:46:18;;;;;;;;;;;32.80;49.60;;;;;;5032294;28;20416;-73
2021/06/04 06:48:43;;;;;;;;;;;33.60;49.80;;;;;;5030116;28;20332;-72
2021/06/04 06:51:09;;;;;;;;;;;34.00;46.70;;;;;;5033292;28;19963;-73
2021/06/04 06:54:52;;;;;;;;;;;34.10;44.50;;;;;;5130090;27;20536;-73
2021/06/04 06:57:17;;;;;;;;;;;34.50;44.10;;;;;;5088998;28;19984;-75
2021/06/04 06:59:43;;;;;;;;;;;34.80;42.90;;;;;;5088598;28;19960;-73
2021/06/04 07:02:10;;;;;;;;;;;35.60;42.80;;;;;;5088459;28;19977;-74
2021/06/04 07:04:37;;;;;;;;;;;36.50;41.50;;;;;;5100280;28;20284;-74
2021/06/04 07:07:03;;;;;;;;;;;37.10;40.00;;;;;;5100204;28;19916;-73
2021/06/04 07:09:30;;;;;;;;;;;37.60;38.70;;;;;;5108922;28;19920;-75
2021/06/04 07:11:56;;;;;;;;;;;37.40;36.10;;;;;;5107352;28;19920;-74
2021/06/04 07:14:23;;;;;;;;;;;36.40;35.60;;;;;;5106156;28;19928;-74
2021/06/04 07:16:50;;;;;;;;;;;35.70;36.40;;;;;;5093919;28;20369;-73
2021/06/04 07:19:16;;;;;;;;;;;36.30;38.20;;;;;;5097223;28;19913;-75
2021/06/04 07:21:42;;;;;;;;;;;37.20;37.30;;;;;;5108983;28;19948;-74
2021/06/04 07:24:14;;;;;;;;;;;38.20;36.90;;;;;;5089755;28;20003;-74
2021/06/04 07:26:44;;;;;;;;;;;38.40;34.60;;;;;;5083105;28;19916;-75
2021/06/04 07:29:09;;;;;;;;;;;38.20;33.80;;;;;;5086632;28;19944;-76
2021/06/04 07:31:35;;;;;;;;;;;38.40;34.40;;;;;;5100099;28;19954;-74
2021/06/04 07:34:04;;;;;;;;;;;39.20;34.30;;;;;;5108373;28;19920;-75
2021/06/04 07:36:31;;;;;;;;;;;40.20;33.40;;;;;;5104331;28;19944;-76
2021/06/04 07:38:58;;;;;;;;;;;41.00;32.10;;;;;;5091150;28;19917;-73
2021/06/04 07:41:24;;;;;;;;;;;41.80;31.10;;;;;;5099179;28;20309;-74
2021/06/04 07:43:50;;;;;;;;;;;41.80;30.00;;;;;;5107971;28;19923;-72
2021/06/04 07:46:18;;;;;;;;;;;40.70;28.90;;;;;;5107062;28;19916;-73
2021/06/04 07:48:43;;;;;;;;;;;39.60;29.20;;;;;;5107827;28;19916;-71
2021/06/04 07:51:11;;;;;;;;;;;39.20;30.00;;;;;;5108098;28;19923;-73
2021/06/04 07:53:39;;;;;;;;;;;39.80;30.00;;;;;;5099263;28;19924;-73
2021/06/04 07:56:05;;;;;;;;;;;40.60;29.80;;;;;;5087352;28;19920;-74
2021/06/04 07:58:31;;;;;;;;;;;41.60;29.60;;;;;;5097307;28;19916;-75
2021/06/04 08:00:57;;;;;;;;;;;42.80;29.20;;;;;;5086560;28;19917;-74
2021/06/04 08:03:25;;;;;;;;;;;43.70;28.50;;;;;;5085587;28;19917;-74
2021/06/04 08:05:51;;;;;;;;;;;44.60;27.90;;;;;;5073254;28;20352;-72
2021/06/04 08:08:17;;;;;;;;;;;45.50;27.20;;;;;;5106031;28;19952;-71
2021/06/04 08:10:44;;;;;;;;;;;45.70;26.50;;;;;;5073639;28;19999;-71
2021/06/04 08:13:15;;;;;;;;;;;45.70;26.20;;;;;;5071068;28;19932;-70
2021/06/04 08:15:51;;;;;;;;;;;45.80;25.70;;;;;;5073710;28;19916;-72
2021/06/04 08:18:21;;;;;;;;;;;46.20;25.90;;;;;;5055169;28;19962;-71
2021/06/04 08:20:47;;;;;;;;;;;46.70;25.60;;;;;;5078464;28;19917;-71
2021/06/04 08:23:15;;;;;;;;;;;47.10;25.30;;;;;;5080045;28;20442;-72
2021/06/04 08:25:49;;;;;;;;;;;47.60;25.00;;;;;;5084893;28;19924;-69
2021/06/04 08:28:17;;;;;;;;;;;47.80;24.60;;;;;;5081464;28;19920;-71
2021/06/04 08:30:43;;;;;;;;;;;47.80;24.30;;;;;;5070737;28;19965;-71
2021/06/04 08:33:09;;;;;;;;;;;47.80;24.20;;;;;;5082343;28;19952;-71
2021/06/04 08:35:35;;;;;;;;;;;48.00;24.10;;;;;;5071553;28;20011;-71
2021/06/04 08:38:01;;;;;;;;;;;48.00;24.00;;;;;;5073025;28;20338;-72
2021/06/04 08:40:30;;;;;;;;;;;48.20;23.80;;;;;;5073286;28;19916;-71
2021/06/04 08:43:08;;;;;;;;;;;48.20;23.60;;;;;;5069980;28;19925;-71
2021/06/04 08:45:39;;;;;;;;;;;48.00;23.50;;;;;;5071745;28;19917;-72
2021/06/04 08:48:04;;;;;;;;;;;47.70;23.50;;;;;;5072777;28;20001;-70
2021/06/04 08:50:35;;;;;;;;;;;47.70;23.50;;;;;;5070215;28;19917;-70
2021/06/04 08:53:06;;;;;;;;;;;47.60;23.30;;;;;;5072270;28;19956;-71
2021/06/04 08:55:33;;;;;;;;;;;48.00;23.80;;;;;;5073239;28;19923;-70
2021/06/04 08:58:17;;;;;;;;;;;48.20;23.40;;;;;;5089824;28;19917;-70
2021/06/04 09:00:48;;;;;;;;;;;48.80;23.60;;;;;;5079237;28;19977;-70
2021/06/04 09:03:25;;;;;;;;;;;49.40;23.40;;;;;;5092809;28;19965;-70
2021/06/04 09:05:53;;;;;;;;;;;49.80;23.20;;;;;;5091061;28;20365;-70
2021/06/04 09:08:23;;;;;;;;;;;50.20;23.20;;;;;;5072982;28;20436;-70
2021/06/04 09:11:12;;;;;;;;;;;50.30;22.80;;;;;;5072326;28;19974;-72
2021/06/04 09:13:38;;;;;;;;;;;49.90;22.50;;;;;;5060497;28;19929;-71
2021/06/04 09:16:20;;;;;;;;;;;49.50;22.60;;;;;;5070934;28;20281;-71
2021/06/04 09:18:56;;;;;;;;;;;49.60;22.80;;;;;;5072226;28;19977;-70
2021/06/04 09:21:27;;;;;;;;;;;50.20;22.70;;;;;;5084041;28;19923;-71
2021/06/04 09:23:53;;;;;;;;;;;50.70;22.60;;;;;;5092494;28;19927;-71
2021/06/04 09:26:21;;;;;;;;;;;50.80;22.10;;;;;;5092143;28;19923;-71
2021/06/04 09:28:48;;;;;;;;;;;50.90;22.20;;;;;;5091442;28;19916;-72
2021/06/04 09:31:33;;;;;;;;;;;51.10;22.10;;;;;;5090884;28;19927;-72
2021/06/04 09:34:10;;;;;;;;;;;51.60;22.10;;;;;;5092056;28;20422;-71
2021/06/04 09:36:41;;;;;;;;;;;52.20;21.90;;;;;;5092253;28;19916;-70
2021/06/04 09:39:07;;;;;;;;;;;52.40;21.60;;;;;;5092384;28;20376;-71
2021/06/04 09:41:34;;;;;;;;;;;52.50;21.70;;;;;;5092055;28;19912;-71
2021/06/04 09:44:00;;;;;;;;;;;52.90;21.80;;;;;;5091937;28;19916;-70
2021/06/04 09:46:29;;;;;;;;;;;52.90;21.50;;;;;;5086044;28;19923;-72
2021/06/04 09:49:00;;;;;;;;;;;52.70;21.60;;;;;;5068825;28;19921;-71
2021/06/04 09:51:33;;;;;;;;;;;52.30;21.40;;;;;;5071141;28;20403;-71
2021/06/04 09:54:19;;;;;;;;;;;52.00;21.40;;;;;;5086487;28;19920;-70
2021/06/04 09:56:45;;;;;;;;;;;52.00;21.70;;;;;;5091370;28;19920;-71
2021/06/04 09:59:13;;;;;;;;;;;52.30;21.80;;;;;;5091692;28;20330;-71
2021/06/04 10:01:49;;;;;;;;;;;52.60;21.50;;;;;;5092042;28;19920;-71
2021/06/04 10:04:30;;;;;;;;;;;52.90;21.70;;;;;;5090126;28;19927;-69
2021/06/04 10:07:04;;;;;;;;;;;53.30;21.70;;;;;;5091188;28;19978;-70
2021/06/04 10:09:38;;;;;;;;;;;53.50;21.60;;;;;;5091395;28;19942;-70
2021/06/04 10:12:06;;;;;;;;;;;53.70;21.60;;;;;;5091886;28;19999;-70
2021/06/04 10:14:43;;;;;;;;;;;54.10;21.50;;;;;;5090076;28;19946;-70
2021/06/04 10:17:42;;;;;;;;;;;54.20;21.30;;;;;;5070765;28;19966;-70
2021/06/04 10:20:25;;;;;;;;;;;54.20;21.10;;;;;;5068983;28;19916;-70
2021/06/04 10:23:12;;;;;;;;;;;53.90;21.20;;;;;;5067516;28;19917;-69
2021/06/04 10:25:39;;;;;;;;;;;53.50;21.10;;;;;;5068398;28;19920;-68
2021/06/04 10:28:05;;;;;;;;;;;53.40;21.20;;;;;;5069169;28;19916;-70
2021/06/04 10:30:30;;;;;;;;;;;53.50;21.20;;;;;;5070710;28;19921;-71
2021/06/04 10:33:03;;;;;;;;;;;53.70;21.30;;;;;;5070687;28;19921;-70
2021/06/04 10:35:32;;;;;;;;;;;54.20;21.30;;;;;;5071270;28;19966;-70
2021/06/04 10:38:03;;;;;;;;;;;54.50;21.30;;;;;;5070518;28;19939;-68
2021/06/04 10:40:29;;;;;;;;;;;54.40;21.00;;;;;;5071089;28;19921;-70
2021/06/04 10:43:13;;;;;;;;;;;53.70;21.00;;;;;;5070486;28;19920;-69
2021/06/04 10:45:41;;;;;;;;;;;53.00;21.10;;;;;;5071085;28;19991;-70
2021/06/04 10:48:06;;;;;;;;;;;50.90;20.90;;;;;;5070757;28;20380;-69
2021/06/04 10:50:46;;;;;;;;;;;48.10;21.20;;;;;;5071029;28;19924;-71
2021/06/04 10:53:13;;;;;;;;;;;47.50;22.60;;;;;;5069374;28;20007;-69
2021/06/04 10:55:42;;;;;;;;;;;48.60;22.40;;;;;;5070776;28;20707;-70
2021/06/04 10:58:17;;;;;;;;;;;49.10;22.00;;;;;;5070554;28;19916;-69
2021/06/04 11:00:45;;;;;;;;;;;49.20;22.00;;;;;;5071034;28;19916;-69
2021/06/04 11:03:16;;;;;;;;;;;49.50;22.10;;;;;;5070767;28;20369;-70
2021/06/04 11:05:47;;;;;;;;;;;49.50;21.60;;;;;;5070710;28;19917;-69
2021/06/04 11:08:37;;;;;;;;;;;46.90;21.50;;;;;;5071131;28;20376;-69
2021/06/04 11:11:09;;;;;;;;;;;44.30;22.50;;;;;;5070852;28;19981;-70
2021/06/04 11:13:40;;;;;;;;;;;44.20;23.80;;;;;;5069685;28;19928;-70
2021/06/04 11:16:10;;;;;;;;;;;44.00;23.60;;;;;;5070273;28;19920;-70
2021/06/04 11:18:38;;;;;;;;;;;44.60;24.50;;;;;;5082423;28;20015;-69
2021/06/04 11:21:08;;;;;;;;;;;46.60;24.70;;;;;;5080625;28;20186;-69
2021/06/04 11:23:56;;;;;;;;;;;48.20;24.10;;;;;;5074034;28;19917;-71
2021/06/04 11:26:25;;;;;;;;;;;49.50;23.80;;;;;;5069087;28;20028;-69
2021/06/04 11:28:53;;;;;;;;;;;50.00;22.60;;;;;;5070570;28;20392;-69
2021/06/04 11:31:28;;;;;;;;;;;48.30;22.20;;;;;;5070297;28;19936;-71
2021/06/04 11:33:55;;;;;;;;;;;46.20;22.70;;;;;;5070299;28;20019;-71
2021/06/04 11:36:25;;;;;;;;;;;44.30;23.20;;;;;;5070319;28;19917;-71
2021/06/04 11:39:04;;;;;;;;;;;43.00;24.00;;;;;;5069342;28;20366;-69
2021/06/04 11:41:50;;;;;;;;;;;42.10;24.30;;;;;;5073591;28;19962;-69
2021/06/04 11:44:42;;;;;;;;;;;41.60;24.80;;;;;;5072586;28;19916;-68
2021/06/04 11:47:14;;;;;;;;;;;41.10;25.40;;;;;;5074110;28;19920;-68
2021/06/04 11:49:54;;;;;;;;;;;41.30;25.80;;;;;;5074229;28;20333;-69
2021/06/04 11:52:31;;;;;;;;;;;41.90;26.00;;;;;;5073751;28;19946;-69
2021/06/04 11:55:08;;;;;;;;;;;42.40;25.80;;;;;;5072406;28;20407;-68
2021/06/04 11:57:52;;;;;;;;;;;42.40;25.30;;;;;;5073664;28;20389;-70
2021/06/04 12:00:24;;;;;;;;;;;41.90;25.30;;;;;;5093130;28;20383;-69
2021/06/04 12:03:10;;;;;;;;;;;41.20;25.50;;;;;;5093880;28;19916;-69
2021/06/04 12:05:43;;;;;;;;;;;40.40;25.20;;;;;;5086068;28;19987;-70
2021/06/04 12:08:15;;;;;;;;;;;39.20;25.40;;;;;;5092735;28;20382;-69
2021/06/04 12:10:46;;;;;;;;;;;38.40;26.60;;;;;;5093454;28;19939;-70
2021/06/04 12:13:31;;;;;;;;;;;38.40;26.40;;;;;;5093666;28;19979;-69
2021/06/04 12:16:16;;;;;;;;;;;38.60;26.60;;;;;;5093557;28;20422;-68
2021/06/04 12:18:48;;;;;;;;;;;38.50;26.20;;;;;;5092905;28;19920;-70
2021/06/04 12:21:32;;;;;;;;;;;37.90;26.40;;;;;;5093420;28;20008;-69
2021/06/04 12:23:58;;;;;;;;;;;37.50;26.90;;;;;;5092464;28;20011;-69
2021/06/04 12:26:52;;;;;;;;;;;37.30;27.30;;;;;;5093477;28;20010;-70
2021/06/04 12:29:20;;;;;;;;;;;37.00;27.40;;;;;;5056054;28;20372;-67
2021/06/04 12:31:59;;;;;;;;;;;36.40;27.20;;;;;;5070897;28;19928;-68
2021/06/04 12:34:31;;;;;;;;;;;35.50;27.80;;;;;;5073328;28;21477;-70
2021/06/04 12:37:26;;;;;;;;;;;34.60;28.10;;;;;;5089608;28;20276;-69
2021/06/04 12:40:10;;;;;;;;;;;34.10;28.60;;;;;;5068702;28;19921;-66
2021/06/04 12:42:41;;;;;;;;;;;33.70;29.20;;;;;;5073114;28;19917;-69
2021/06/04 12:45:19;;;;;;;;;;;33.40;29.40;;;;;;5072280;28;19917;-69
2021/06/04 12:47:58;;;;;;;;;;;33.10;29.80;;;;;;5073247;28;19921;-71
2021/06/04 12:50:26;;;;;;;;;;;32.90;30.10;;;;;;5072614;28;19948;-68
2021/06/04 12:53:07;;;;;;;;;;;32.90;31.00;;;;;;5072671;28;19982;-68
2021/06/04 12:55:33;;;;;;;;;;;33.10;31.50;;;;;;5072435;28;20292;-69
2021/06/04 12:58:29;;;;;;;;;;;33.30;31.90;;;;;;5073036;28;19985;-69
2021/06/04 13:01:12;;;;;;;;;;;33.50;32.40;;;;;;5043298;28;19920;-70
2021/06/04 13:03:43;;;;;;;;;;;33.50;32.80;;;;;;5071789;28;20014;-70
2021/06/04 13:06:20;;;;;;;;;;;33.30;33.20;;;;;;5071750;28;20291;-68
2021/06/04 13:08:48;;;;;;;;;;;33.00;33.70;;;;;;5070183;28;19923;-70
2021/06/04 13:11:29;;;;;;;;;;;32.60;34.20;;;;;;5072120;28;19920;-68
2021/06/04 13:13:55;;;;;;;;;;;32.10;34.60;;;;;;5071789;28;20334;-69
2021/06/04 13:16:23;;;;;;;;;;;31.70;35.30;;;;;;5070174;28;19923;-69
2021/06/04 13:18:50;;;;;;;;;;;31.50;35.80;;;;;;5072020;28;19983;-70
2021/06/04 13:21:21;;;;;;;;;;;31.40;36.10;;;;;;5071695;28;20011;-69
2021/06/04 13:23:59;;;;;;;;;;;31.00;36.50;;;;;;5071960;28;19923;-70
2021/06/04 13:26:26;;;;;;;;;;;30.90;37.30;;;;;;5071598;28;20015;-70
2021/06/04 13:28:54;;;;;;;;;;;30.80;37.70;;;;;;5072031;28;19959;-69
2021/06/04 13:31:33;;;;;;;;;;;30.80;38.20;;;;;;5067618;28;19916;-69
2021/06/04 13:34:02;;;;;;;;;;;30.90;38.20;;;;;;5068354;28;20454;-71
2021/06/04 13:36:28;;;;;;;;;;;31.00;38.30;;;;;;5071447;28;19916;-70
2021/06/04 13:38:56;;;;;;;;;;;31.10;38.50;;;;;;5065769;28;19974;-69
2021/06/04 13:41:27;;;;;;;;;;;31.20;38.70;;;;;;5070743;28;19923;-70
2021/06/04 13:43:58;;;;;;;;;;;31.40;38.80;;;;;;5070442;28;19967;-69
2021/06/04 13:46:32;;;;;;;;;;;31.50;38.70;;;;;;5068639;28;20027;-71
2021/06/04 13:49:13;;;;;;;;;;;31.70;39.10;;;;;;5070275;28;19962;-70
2021/06/04 13:51:50;;;;;;;;;;;31.80;39.00;;;;;;5068671;28;20015;-69
2021/06/04 13:54:36;;;;;;;;;;;31.80;38.70;;;;;;5078454;28;19929;-70
2021/06/04 13:57:10;;;;;;;;;;;31.70;38.70;;;;;;5068811;28;19923;-72
2021/06/04 13:59:36;;;;;;;;;;;31.40;38.60;;;;;;5071338;28;19960;-75
2021/06/04 14:02:24;;;;;;;;;;;31.20;38.80;;;;;;5062273;28;20385;-74
2021/06/04 14:04:51;;;;;;;;;;;30.90;39.00;;;;;;5061046;28;20003;-72
2021/06/04 14:07:25;;;;;;;;;;;30.60;39.60;;;;;;5062640;28;19916;-74
2021/06/04 14:09:51;;;;;;;;;;;30.30;39.90;;;;;;5061917;28;20329;-74
2021/06/04 14:12:17;;;;;;;;;;;30.10;40.00;;;;;;5062885;28;20426;-73
2021/06/04 14:14:46;;;;;;;;;;;29.90;40.20;;;;;;5070404;28;19920;-74
2021/06/04 14:17:29;;;;;;;;;;;29.60;40.60;;;;;;5071530;28;19928;-74
2021/06/04 14:19:56;;;;;;;;;;;29.50;41.20;;;;;;5071213;28;20412;-73
2021/06/04 14:22:34;;;;;;;;;;;29.40;41.40;;;;;;5070219;28;19970;-74
2021/06/04 14:25:00;;;;;;;;;;;29.30;41.70;;;;;;5071229;28;20357;-73
2021/06/04 14:27:26;;;;;;;;;;;29.40;42.10;;;;;;5071553;28;20030;-74
2021/06/04 14:30:10;;;;;;;;;;;29.40;42.10;;;;;;5071744;28;20064;-74
2021/06/04 14:32:36;;;;;;;;;;;29.40;42.00;;;;;;5071345;28;20195;-74
2021/06/04 14:35:11;;;;;;;;;;;29.40;42.30;;;;;;5071103;28;19932;-75
2021/06/04 14:37:38;;;;;;;;;;;29.50;42.50;;;;;;5071054;28;20007;-74